Latest Weather Observations for Walpole North

IDW60801

Issued at 3:34 pm WST Tuesday 28 February 2017 (issued every 30 minutes, with the page automatically refreshed every 10 minutes)

About weather observations | Map of weather stations | Latest weather observations for WA | Other Formats
Station Details ID: 009998 Name: NORTH WALPOLE Lat: -34.95 Lon: 116.72 Height: 73.0 m
Data from the previous 72 hours. | See also: Recent months at Walpole North
Date/Time
WST
Temp
°C
App
Temp
°C
Dew
Point
°C
Rel
Hum
%
Delta-T
°C
Wind Press
QNH
hPa
Press
MSL
hPa
Rain since
9am
mm
Dir  Spd
km/h
Gust
km/h
Spd
kts
Gust
kts
28/03:30pm 23.7 22.4 16.7 65 4.3 SE 19 26 10 14 1016.5 1016.3 0.0
28/03:00pm 24.2 22.9 16.7 63 4.6 ESE 19 26 10 14 1016.4 1016.2 0.0
28/02:30pm 23.8 23.4 17.1 66 4.1 SSE 15 26 8 14 1016.5 1016.3 0.0
28/02:00pm 24.0 23.5 17.0 65 4.3 SSE 15 26 8 14 1016.6 1016.4 0.0
28/01:30pm 24.1 23.1 16.6 63 4.6 SE 17 24 9 13 1016.8 1016.6 0.0
28/01:00pm 24.6 23.9 17.3 64 4.5 ESE 17 26 9 14 1017.0 1016.8 0.0
28/12:30pm 24.5 24.3 17.5 65 4.4 SSE 15 26 8 14 1017.2 1017.0 0.0
28/12:00pm 23.6 23.4 16.6 65 4.3 SSE 13 22 7 12 1017.4 1017.2 0.0
28/11:30am 23.1 23.4 15.9 64 4.4 SSE 9 17 5 9 1018.0 1017.8 0.0
28/11:00am 22.6 22.0 15.7 65 4.1 E 13 20 7 11 1018.6 1018.4 0.0
28/10:30am 21.8 21.2 15.6 68 3.7 SE 13 20 7 11 1018.8 1018.6 0.0
28/10:00am 20.4 19.8 14.7 70 3.3 ESE 11 17 6 9 1019.1 1018.9 0.0
28/09:30am 19.7 18.8 14.9 74 2.8 E 13 19 7 10 1019.1 1018.9 0.0
28/09:00am 18.9 17.2 14.6 76 2.5 E 17 24 9 13 1019.0 1018.8 0.0
28/08:30am 18.7 17.9 15.0 79 2.2 E 13 20 7 11 1018.9 1018.7 0.0
28/08:00am 18.4 17.6 15.1 81 1.9 ENE 13 19 7 10 1018.7 1018.5 0.0
28/07:30am 18.0 17.6 15.3 84 1.6 E 11 20 6 11 1018.7 1018.5 0.0
28/07:00am 17.6 16.8 15.2 86 1.4 E 13 24 7 13 1018.8 1018.6 0.0
28/06:30am 17.1 17.4 15.1 88 1.2 E 7 11 4 6 1018.8 1018.6 0.0
28/06:00am 17.1 17.5 15.3 89 1.0 E 7 11 4 6 1018.6 1018.4 0.0
28/05:30am 16.9 17.2 16.1 95 0.5 E 9 13 5 7 1018.4 1018.2 0.0
28/05:00am 16.7 17.6 16.5 99 0.1 E 7 11 4 6 1018.1 1017.9 0.0
28/04:30am 16.6 17.1 16.6 100 0.0 E 9 13 5 7 1017.9 1017.7 0.0
28/04:00am 16.6 17.1 16.6 100 0.0 E 9 13 5 7 1017.8 1017.6 0.0
28/03:30am 16.5 17.0 16.5 100 0.0 E 9 11 5 6 1017.8 1017.6 0.0
28/03:00am 16.5 17.4 16.5 100 0.0 ENE 7 11 4 6 1017.8 1017.6 0.0
28/02:30am 16.4 16.8 16.4 100 0.0 ENE 9 11 5 6 1018.0 1017.8 0.0
28/02:00am 15.9 16.2 15.9 100 0.0 ENE 9 11 5 6 1018.1 1017.9 0.0
28/01:30am 15.7 15.9 15.7 100 0.0 E 9 11 5 6 1018.4 1018.2 0.0
28/01:00am 16.0 18.0 16.0 100 0.0 CALM 0 6 0 3 1018.4 1018.2 0.0
28/12:30am 16.1 16.8 16.1 100 0.0 ESE 7 9 4 5 1018.4 1018.2 0.0
28/12:00am 16.1 17.0 16.1 100 0.0 SE 6 7 3 4 1018.5 1018.3 0.0
 
Date/Time
WST
Temp
°C
App
Temp
°C
Dew
Point
°C
Rel
Hum
%
Delta-T
°C
Wind Press
QNH
hPa
Press
MSL
hPa
Rain since
9am
mm
Dir  Spd
km/h
Gust
km/h
Spd
kts
Gust
kts
27/11:30pm 16.2 17.1 16.2 100 0.0 ENE 6 9 3 5 1018.5 1018.3 0.0
27/11:00pm 17.0 19.4 17.0 100 0.0 CALM 0 0 0 0 1018.8 1018.6 0.0
27/10:30pm 16.9 19.2 16.7 99 0.1 CALM 0 0 0 0 1018.5 1018.3 0.0
27/10:00pm 17.2 19.2 17.0 99 0.1 NE 2 7 1 4 1018.4 1018.2 0.0
27/09:30pm 17.6 19.8 17.4 99 0.1 NE 2 6 1 3 1018.3 1018.1 0.0
27/09:00pm 17.8 18.9 17.2 96 0.4 ENE 7 11 4 6 1017.9 1017.7 0.0
27/08:30pm 18.1 18.8 17.1 94 0.6 E 9 15 5 8 1017.6 1017.4 0.0
27/08:00pm 18.3 18.6 17.0 92 0.8 SE 11 15 6 8 1017.3 1017.1 0.0
27/07:30pm 18.6 18.9 16.9 90 1.0 S 11 17 6 9 1016.9 1016.7 0.0
27/07:00pm 18.9 19.2 16.9 88 1.2 E 11 17 6 9 1016.4 1016.2 0.0
27/06:30pm 19.1 18.9 16.7 86 1.4 E 13 19 7 10 1016.9 1016.7 0.0
27/06:00pm 19.4 20.2 16.4 83 1.8 S 7 9 4 5 1017.1 1016.9 0.0
27/05:30pm 19.7 20.1 16.3 81 2.0 SSE 9 15 5 8 1016.3 1016.1 0.0
27/05:00pm 19.9 19.4 16.0 78 2.3 E 13 17 7 9 1016.2 1016.0 0.0
27/04:30pm 20.4 20.4 16.2 77 2.5 E 11 19 6 10 1016.2 1016.0 0.0
27/04:00pm 20.3 19.9 16.1 77 2.5 SE 13 20 7 11 1016.3 1016.1 0.0
27/03:30pm 20.3 19.2 16.3 78 2.4 SSE 17 24 9 13 1016.4 1016.2 0.0
27/03:00pm 20.5 20.7 16.7 79 2.3 S 11 20 6 11 1016.2 1016.0 0.0
27/02:30pm 21.9 22.8 17.5 76 2.7 SSE 9 20 5 11 1016.1 1015.9 0.0
27/02:00pm 21.3 22.2 16.5 74 2.9 S 7 15 4 8 1016.4 1016.2 0.0
27/01:30pm 22.5 22.4 17.0 71 3.4 S 13 24 7 13 1016.4 1016.2 0.0
27/01:00pm 22.8 23.7 16.6 68 3.8 SSW 7 13 4 7 1016.5 1016.3 0.0
27/12:30pm 22.7 23.3 15.8 65 4.2 ENE 7 9 4 5 1016.7 1016.5 0.0
27/12:00pm 22.2 22.2 15.3 65 4.1 ESE 9 15 5 8 1016.8 1016.6 0.0
27/11:30am 22.1 21.3 15.2 65 4.1 ENE 13 20 7 11 1016.8 1016.6 0.0
27/11:00am 23.3 23.8 17.5 70 3.6 ENE 11 19 6 10 1017.0 1016.8 0.0
27/10:30am 20.8 20.7 16.0 74 2.9 ENE 11 17 6 9 1017.2 1017.0 0.0
27/10:00am 20.1 20.5 16.3 79 2.3 E 9 13 5 7 1017.4 1017.2 0.0
27/09:30am 19.7 20.2 16.5 82 1.9 NE 9 15 5 8 1017.5 1017.3 0.0
27/09:00am 19.0 18.8 16.6 86 1.4 ENE 13 19 7 10 1017.3 1017.1 0.0
27/08:30am 18.4 18.9 18.4 100 0.0 ENE 13 19 7 10 1017.0 1016.8 0.0
27/08:00am 16.4 17.4 16.4 100 0.0 SSW 6 7 3 4 1016.7 1016.5 0.0
27/07:30am 15.8 17.7 15.8 100 0.0 CALM 0 0 0 0 1016.6 1016.4 0.0
27/07:00am 15.6 16.3 15.6 100 0.0 SSW 6 7 3 4 1016.2 1016.0 0.0
27/06:30am 14.5 15.9 14.5 100 0.0 CALM 0 0 0 0 1016.1 1015.9 0.0
27/06:00am 14.8 16.4 14.8 100 0.0 CALM 0 0 0 0 1015.6 1015.4 0.0
27/05:30am 14.6 14.9 14.6 100 0.0 SSW 6 7 3 4 1015.5 1015.3 0.0
27/05:00am 14.8 16.4 14.8 100 0.0 CALM 0 0 0 0 1015.3 1015.1 0.0
27/04:30am 15.0 16.6 15.0 100 0.0 CALM 0 0 0 0 1015.3 1015.1 0.0
27/04:00am 15.1 16.8 15.1 100 0.0 CALM 0 0 0 0 1015.1 1014.9 0.0
27/03:30am 14.7 16.2 14.7 100 0.0 CALM 0 0 0 0 1015.4 1015.2 0.0
27/03:00am 15.0 16.6 15.0 100 0.0 CALM 0 0 0 0 1015.4 1015.2 0.0
27/02:30am 14.3 15.7 14.3 100 0.0 CALM 0 0 0 0 1015.3 1015.1 0.0
27/02:00am 14.4 15.8 14.4 100 0.0 CALM 0 0 0 0 1015.2 1015.0 0.0
27/01:30am 14.1 15.4 14.1 100 0.0 CALM 0 0 0 0 1015.3 1015.1 0.0
27/01:00am 14.6 16.1 14.6 100 0.0 CALM 0 0 0 0 1015.3 1015.1 0.0
27/12:30am 14.9 15.7 14.9 100 0.0 SSW 4 9 2 5 1015.4 1015.2 0.0
27/12:00am 14.9 15.7 14.9 100 0.0 SSW 4 9 2 5 1015.6 1015.4 0.0
 
Date/Time
WST
Temp
°C
App
Temp
°C
Dew
Point
°C
Rel
Hum
%
Delta-T
°C
Wind Press
QNH
hPa
Press
MSL
hPa
Rain since
9am
mm
Dir  Spd
km/h
Gust
km/h
Spd
kts
Gust
kts
26/11:30pm 14.7 16.2 14.7 100 0.0 CALM 0 0 0 0 1015.7 1015.5 0.0
26/11:00pm 14.4 15.7 14.2 99 0.1 CALM 0 0 0 0 1015.4 1015.2 0.0
26/10:30pm 15.3 17.0 15.1 99 0.1 CALM 0 0 0 0 1015.3 1015.1 0.0
26/10:00pm 15.7 17.5 15.5 99 0.1 CALM 0 0 0 0 1015.6 1015.4 0.0
26/09:30pm 15.9 17.8 15.7 99 0.1 CALM 0 0 0 0 1015.6 1015.4 0.0
26/09:00pm 16.4 17.3 16.1 98 0.2 SSW 6 6 3 3 1015.7 1015.5 0.0
26/08:30pm 16.4 18.2 15.4 94 0.6 CALM 0 7 0 4 1015.5 1015.3 0.0
26/08:00pm 16.8 18.5 15.2 90 0.9 CALM 0 0 0 0 1015.1 1014.9 0.0
26/07:30pm 17.2 18.8 14.8 86 1.4 CALM 0 0 0 0 1014.8 1014.6 0.0
26/07:00pm 17.9 18.4 15.0 83 1.7 SSW 6 9 3 5 1014.6 1014.4 0.0
26/06:30pm 18.9 18.9 15.2 79 2.2 S 9 19 5 10 1014.3 1014.1 0.0
26/06:00pm 20.0 20.4 15.4 75 2.7 SE 7 13 4 7 1014.3 1014.1 0.0
26/05:30pm 20.2 20.3 15.6 75 2.7 SSE 9 13 5 7 1014.1 1013.9 0.0
26/05:00pm 20.0 19.5 15.0 73 2.9 S 11 22 6 12 1013.9 1013.7 0.0
26/04:30pm 21.1 21.0 16.1 73 3.0 SSE 11 15 6 8 1013.7 1013.5 0.0
26/04:00pm 20.5 20.1 15.1 71 3.2 S 11 20 6 11 1013.6 1013.4 0.0
26/03:30pm 21.9 21.2 15.3 66 3.9 SSE 13 24 7 13 1013.5 1013.3 0.0
26/03:00pm 21.8 20.5 14.9 65 4.1 SSE 15 20 8 11 1013.4 1013.2 0.0
26/02:30pm 21.5 20.3 15.1 67 3.8 SSE 15 24 8 13 1013.3 1013.1 0.0
26/02:00pm 22.2 21.4 15.1 64 4.2 SSW 13 24 7 13 1013.5 1013.3 0.0
26/01:30pm 21.7 21.2 14.8 65 4.1 SSE 11 20 6 11 1013.5 1013.3 0.0
26/01:00pm 21.8 19.9 14.2 62 4.5 SE 17 22 9 12 1013.2 1013.0 0.0
26/12:30pm 21.8 20.5 13.7 60 4.7 S 13 24 7 13 1013.4 1013.2 0.0
26/12:00pm 22.3 21.2 14.2 60 4.8 S 13 20 7 11 1013.3 1013.1 0.0
26/11:30am 22.2 21.2 14.6 62 4.5 SSE 13 22 7 12 1013.7 1013.5 0.0
26/11:00am 21.2 20.0 13.9 63 4.2 S 13 20 7 11 1013.8 1013.6 0.0
26/10:30am 21.3 19.9 13.5 61 4.5 SE 13 17 7 9 1014.0 1013.8 0.0
26/10:00am 20.9 19.6 13.8 64 4.1 S 13 20 7 11 1013.9 1013.7 0.0
26/09:30am 20.2 19.3 13.6 66 3.8 S 11 26 6 14 1013.9 1013.7 0.0
26/09:00am 19.6 18.6 13.5 68 3.5 SSE 11 19 6 10 1013.9 1013.7 0.0
26/08:30am 18.9 19.1 14.6 76 2.5 SSE 7 13 4 7 1014.0 1013.8 0.0
26/08:00am 17.7 18.3 15.7 88 1.2 SE 7 9 4 5 1014.0 1013.8 0.0
26/07:30am 16.3 18.4 16.3 100 0.0 CALM 0 0 0 0 1013.8 1013.6 0.0
26/07:00am 15.2 16.9 15.2 100 0.0 CALM 0 0 0 0 1013.6 1013.4 0.0
26/06:30am 14.4 15.8 14.4 100 0.0 CALM 0 0 0 0 1013.4 1013.2 0.0
26/06:00am 14.1 15.4 14.1 100 0.0 CALM 0 0 0 0 1013.3 1013.1 0.0
26/05:30am 14.0 14.1 13.8 99 0.1 SW 6 9 3 5 1013.1 1012.9 0.0
26/05:00am 14.0 15.2 13.8 99 0.1 CALM 0 6 0 3 1013.0 1012.8 0.0
26/04:30am 13.5 13.4 13.3 99 0.1 SW 6 7 3 4 1012.8 1012.6 0.0
26/04:00am 14.3 15.6 14.1 99 0.1 CALM 0 0 0 0 1012.7 1012.5 0.0
26/03:30am 14.7 16.1 14.4 98 0.2 CALM 0 0 0 0 1012.6 1012.4 0.0
26/03:00am 14.7 15.6 13.9 95 0.5 SW 2 7 1 4 1012.9 1012.7 0.0
26/02:30am 14.8 16.0 13.7 93 0.6 CALM 0 6 0 3 1012.9 1012.7 0.0
26/02:00am 15.3 15.2 14.0 92 0.7 SW 7 9 4 5 1013.2 1013.0 0.0
26/01:30am 15.8 15.8 14.2 90 0.9 SW 7 9 4 5 1013.3 1013.1 0.0
26/01:00am 16.3 16.0 14.3 88 1.1 SW 9 11 5 6 1013.5 1013.3 0.0
26/12:30am 16.9 16.4 14.9 88 1.2 SW 11 20 6 11 1013.7 1013.5 0.0
26/12:00am 17.1 16.9 15.8 92 0.8 SW 11 19 6 10 1013.8 1013.6 0.0
 
Date/Time
WST
Temp
°C
App
Temp
°C
Dew
Point
°C
Rel
Hum
%
Delta-T
°C
Wind Press
QNH
hPa
Press
MSL
hPa
Rain since
9am
mm
Dir  Spd
km/h
Gust
km/h
Spd
kts
Gust
kts
25/11:30pm 16.9 17.2 15.9 94 0.6 SW 9 15 5 8 1013.8 1013.6 0.0
25/11:00pm 16.7 16.6 15.9 95 0.5 WSW 11 17 6 9 1013.9 1013.7 0.0
25/10:30pm 17.0 17.1 16.4 96 0.4 WSW 11 17 6 9 1014.0 1013.8 0.0
25/10:00pm 17.0 17.1 16.4 96 0.4 WSW 11 15 6 8 1013.9 1013.7 0.0
25/09:30pm 17.0 17.6 16.7 98 0.2 WSW 9 13 5 7 1013.9 1013.7 0.0
25/09:00pm 17.1 17.2 16.6 97 0.3 WSW 11 13 6 7 1014.0 1013.8 0.0
25/08:30pm 17.4 18.6 16.8 96 0.4 SW 6 7 3 4 1014.0 1013.8 0.0
25/08:00pm 17.6 18.7 17.0 96 0.4 SSW 7 13 4 7 1014.0 1013.8 0.0
25/07:30pm 17.8 19.4 17.0 95 0.5 SSE 4 9 2 5 1013.8 1013.6 0.0
25/07:00pm 18.3 19.8 16.6 90 1.0 SSE 4 9 2 5 1013.6 1013.4 0.0
25/06:30pm 19.1 20.2 17.2 89 1.2 SSE 7 11 4 6 1013.3 1013.1 0.0
25/06:00pm 19.9 20.7 17.3 85 1.6 SSE 9 15 5 8 1013.3 1013.1 0.0
25/05:30pm 20.8 21.4 17.6 82 2.0 SSE 11 19 6 10 1013.2 1013.0 0.0
25/05:00pm 21.7 22.5 18.1 80 2.2 SSE 11 20 6 11 1012.9 1012.7 0.0
25/04:30pm 23.0 23.1 18.3 75 3.0 SE 15 22 8 12 1012.7 1012.5 0.0
25/04:00pm 24.4 23.9 18.6 70 3.7 SSE 19 26 10 14 1012.6 1012.4 0.0

Other Formats:

Comma delimited format used in spreadsheet applications
http://www.bom.gov.au/fwo/IDW60801/IDW60801.95647.axf

JavaScript Object Notation format (JSON) in row-major order
http://www.bom.gov.au/fwo/IDW60801/IDW60801.95647.json